Tiempo atmosférico en la estación meteorológica de Burgo de Osma, Soria (932 m.)



Fecha
DESCASC
Temp. máxima en grados centígrados (hora)
DESCASC
Temp. mínima en grados centígrados (hora)
DESCASC
Temp. media en grados centígrados
DESCASC
Racha de viento máxima en m/sg (hora)
DESCASC
Velocidad máxima media en intervalos de 10 minutos(hora)
DESCASC
Precipitaciones diarias en mm
DESCASC
Precipitaciones de 00:00 a 06:00 en mm
DESCASC
Precipitaciones de 06:00 a 12:00 en mm
DESCASC
Precipitaciones de 12:00 a 18:00 en mm
DESCASC
Precipitaciones de 18:00 a 24:00 en mm
DESCASC
24-09-2020 19.5 (15:50) 12.5 (23:59) 16 17.22 (18:50) 11.11 (18:10) 0 0 0 0 0
23-09-2020 21.3 (18:10) 8.6 (00:00) 14.9 11.39 (20:20) 7.78 (20:20) 0.8 0 0 0.8 0
22-09-2020 21.5 (15:10) 9.6 (00:00) 15.6 8.89 (16:50) 5.28 (16:10) 0 0 0 0 0
21-09-2020 22.2 (18:00) 12.5 (00:00) 17.4 8.33 (15:40) 5.83 (16:30) 3.4 3.4 0 0 0
20-09-2020 19.4 (16:40) 12.2 (00:00) 15.8 9.17 (17:10) 6.67 (15:00) 4.4 1.4 1.4 0.4 1.2
19-09-2020 17.6 (13:40) 10.7 (00:00) 14.2 16.67 (13:20) 11.11 (13:20) 37.4 31.6 3.6 2 0.2
18-09-2020 21.4 (17:00) 12.7 (00:00) 17 9.72 (19:40) 5.83 (19:40) 19 17.2 0.2 0 1.6
17-09-2020 26.9 (16:20) 14.9 (00:00) 20.9 12.5 (23:00) 7.22 (23:00) 3.2 0.2 0.2 0 2.8
16-09-2020 30.3 (16:40) 9.9 (07:50) 20.1 7.78 (13:20) 5.28 (20:20) 0 0 0 0 0
15-09-2020 28.2 (17:20) 14.3 (00:00) 21.3 10.56 (01:20) 6.67 (01:20) 2.4 0.8 1.6 0 0
14-09-2020 28.2 (14:40) 14.8 (00:00) 21.5 10 (14:10) 6.11 (11:40) 0 0 0 0 0
13-09-2020 32.6 (16:20) 12 (00:00) 22.3 8.33 (18:00) 5.28 (16:50) 0 0 0 0 0
12-09-2020 33.2 (18:50) 6.6 (08:00) 19.9 6.39 (12:10) 3.61 (12:00) 0 0 0 0 0
11-09-2020 29.4 (17:30) 6.3 (00:00) 17.8 8.61 (16:00) 5.56 (16:00) 0 0 0 0 0
10-09-2020 28.7 (18:00) 6.9 (00:00) 17.8 7.5 (19:20) 5.28 (19:10) 0 0 0 0 0
09-09-2020 28.1 (17:50) 6.8 (08:00) 17.5 7.22 (18:50) 5.28 (18:40) 0 0 0 0 0
08-09-2020 25.1 (17:00) 2 (00:00) 13.6 9.72 (15:40) 6.39 (12:40) 0 0 0 0 0
07-09-2020 25.4 (18:10) 4 (07:30) 14.7 9.72 (19:00) 6.67 (18:30) 0 0 0 0 0
06-09-2020 29 (16:40) 12.6 (00:00) 20.8 10.56 (18:30) 7.22 (18:10) 0 0 0 0 0
05-09-2020 33 (18:50) 10.8 (00:00) 21.9 11.67 (17:10) 6.67 (19:50) 0 0 0 0 0
04-09-2020 33.5 (17:50) 10.2 (00:00) 21.8 8.33 (17:20) 5 (19:50) 0 0 0 0 0
03-09-2020 32.8 (19:20) 5.4 (00:00) 19.1 5.28 (15:40) 3.06 (10:50) 0 0 0 0 0
02-09-2020 27.6 (17:20) 4.5 (00:00) 16.1 7.5 (19:50) 5.28 (20:00) 0 0 0 0 0
01-09-2020 26 (18:40) 7.9 (00:00) 17 8.89 (15:10) 5 (20:50) 0 0 0 0 0
31-08-2020 22.9 (16:30) 1.1 (00:00) 12 8.33 (17:00) 5.28 (17:50) 0 0 0 0 0
30-08-2020 19.5 (17:20) 4.6 (00:00) 12 10 (14:10) 6.11 (02:20) 0 0 0 0 0
29-08-2020 18.8 (15:50) 7.9 (00:00) 13.3 15 (17:00) 10.28 (17:00) 13 0 0 0.2 12.8
28-08-2020 26.7 (16:50) 13.7 (00:00) 20.2 15.28 (15:20) 10.28 (15:10) 0 0 0 0 0

Gráficas

Temp. máximas Temp. mínimas Temp. medias Precipitaciones Rachas de viento máximas Velocidades máximas media en intervalos de 10 minutos

Datos horarios

Fecha y hora oficial Temperatura (ºC) Velocidad del viento (km/h) Dirección del viento Racha (km/h) Dirección de racha Precipitación (mm) Presión (hPa) Tendencia (hPa) Humedad (%)
2020-09-26 23:00:00 13.3 26 Oeste 39 Oeste 0 -- -- 69
2020-09-26 22:00:00 13.3 22 Oeste 33 Oeste 0 -- -- 62
2020-09-26 21:00:00 14.5 22 Oeste 41 Oeste 0 -- -- 56
2020-09-26 20:00:00 15.2 27 Oeste 40 Oeste 0 -- -- 54
2020-09-26 19:00:00 15.3 29 Oeste 46 Oeste 0 -- -- 53
2020-09-26 18:00:00 14.6 31 Oeste 48 Oeste 0 -- -- 54
2020-09-26 17:00:00 14.7 30 Oeste 46 Noroeste 0 -- -- 52
2020-09-26 16:00:00 15.9 28 Noroeste 46 Oeste 0 -- -- 53
2020-09-26 15:00:00 13.8 29 Oeste 40 Noroeste 0 -- -- 58
2020-09-26 14:00:00 13.8 28 Oeste 41 Oeste 0 -- -- 57
2020-09-26 13:00:00 12.1 23 Oeste 37 Oeste 0 -- -- 63
2020-09-26 12:00:00 11.9 21 Noroeste 40 Oeste 0 -- -- 63
2020-09-26 11:00:00 9.5 21 Noroeste 36 Oeste 0 -- -- 69
2020-09-26 10:00:00 7.2 21 Oeste 31 Oeste 0 -- -- 77
2020-09-26 09:00:00 6 18 Oeste 27 Oeste 0 -- -- 82
2020-09-26 08:00:00 5.6 14 Oeste 24 Oeste 0 -- -- 86
2020-09-26 07:00:00 5.4 15 Oeste 22 Oeste 0 -- -- 86
2020-09-26 06:00:00 5 15 Oeste 26 Oeste 0 -- -- 87
2020-09-26 05:00:00 5.1 18 Oeste 24 Oeste 0 -- -- 86
2020-09-26 04:00:00 5 16 Oeste 23 Oeste 0 -- -- 86
2020-09-26 03:00:00 5.1 15 Oeste 24 Oeste 0 -- -- 88
2020-09-26 02:00:00 5.4 15 Oeste 19 Oeste 0 -- -- 85
2020-09-26 01:00:00 6.1 14 Oeste 18 Oeste 0 -- -- 82
2020-09-26 00:00:00 7.2 10 Noroeste 17 Oeste 0 -- -- 76
2020-09-25 23:00:00 7.9 13 Noroeste 24 Noroeste 0 -- -- 72
2020-09-25 22:00:00 9 13 Noroeste 21 Noroeste 0 -- -- 68
2020-09-25 21:00:00 10.5 14 Noroeste 34 Noroeste 0 -- -- 61
2020-09-25 20:00:00 12.2 24 Noroeste 48 Noroeste 0 -- -- 49
2020-09-25 19:00:00 13.4 28 Noroeste 55 Noroeste 0 -- -- 43
2020-09-25 18:00:00 13.7 31 Noroeste 55 Noroeste 0 -- -- 45
2020-09-25 17:00:00 14 37 Oeste 63 Oeste 0 -- -- 45
2020-09-25 16:00:00 14.5 32 Noroeste 59 Noroeste 0 -- -- 43
2020-09-25 15:00:00 13.2 40 Oeste 58 Oeste 0 -- -- 48
2020-09-25 14:00:00 12.4 39 Oeste 59 Oeste 0 -- -- 51
2020-09-25 13:00:00 12.1 41 Oeste 58 Oeste 0 -- -- 51
2020-09-25 12:00:00 11.4 34 Oeste 56 Oeste 0 -- -- 55
2020-09-25 11:00:00 10.6 36 Oeste 54 Oeste 0 -- -- 61
2020-09-25 10:00:00 9.3 35 Oeste 49 Oeste 0 -- -- 65
2020-09-25 09:00:00 7.3 24 Oeste 39 Oeste 0 -- -- 72
2020-09-25 08:00:00 7.1 24 Oeste 41 Oeste 0 -- -- 78
2020-09-25 07:00:00 8.1 31 Oeste 51 Oeste 0 -- -- 75
2020-09-25 06:00:00 9.3 33 Oeste 63 Oeste 0 -- -- 72
2020-09-25 05:00:00 9.4 33 Oeste 62 Oeste 0 -- -- 81
2020-09-25 04:00:00 10.8 36 Oeste 59 Oeste 0 -- -- 74
2020-09-25 03:00:00 11.2 26 Oeste 44 Oeste 0 -- -- 76
2020-09-25 02:00:00 11.8 26 Oeste 53 Oeste 0 -- -- 71
2020-09-25 01:00:00 11.9 36 Oeste 54 Oeste 0 -- -- 69
2020-09-25 00:00:00 12.5 31 Oeste 49 Oeste 0 -- -- 63
2020-09-24 23:00:00 13.3 29 Oeste 42 Oeste 0 -- -- 58
2020-09-24 22:00:00 13.7 28 Oeste 45 Oeste 0 -- -- 55
2020-09-24 21:00:00 14.5 27 Oeste 44 Oeste 0 -- -- 52
2020-09-24 20:00:00 16.1 27 Oeste 53 Oeste 0 -- -- 53
2020-09-24 19:00:00 17.6 38 Oeste 62 Oeste 0 -- -- 47
2020-09-24 18:00:00 17.9 38 Oeste 55 Oeste 0 -- -- 51
2020-09-24 17:00:00 18.5 36 Oeste 55 Oeste 0 -- -- 50
2020-09-24 16:00:00 18.1 36 Oeste 53 Oeste 0 -- -- 52
2020-09-24 15:00:00 17.7 35 Oeste 53 Oeste 0 -- -- 53
2020-09-24 14:00:00 17.8 33 Oeste 50 Oeste 0 -- -- 52
2020-09-24 13:00:00 16.4 36 Oeste 50 Oeste 0 -- -- 64
2020-09-24 12:00:00 15.1 27 Oeste 37 Oeste 0 -- -- 74
2020-09-24 11:00:00 14 19 Oeste 28 Oeste 0 -- -- 80
2020-09-24 10:00:00 13.9 17 Oeste 25 Oeste 0 -- -- 84
2020-09-24 09:00:00 13.4 6 Oeste 10 Oeste 0 -- -- 90
2020-09-24 08:00:00 13.6 6 Sudoeste 11 Sudoeste 0 -- -- 90
2020-09-24 07:00:00 13.6 7 Oeste 12 Oeste 0 -- -- 90
2020-09-24 06:00:00 13.6 7 Sudoeste 13 Oeste 0 -- -- 90
2020-09-24 05:00:00 13.6 11 Oeste 18 Oeste 0 -- -- 89
2020-09-24 04:00:00 13.6 10 Oeste 18 Oeste 0 -- -- 89
2020-09-24 03:00:00 13.6 10 Oeste 18 Oeste 0 -- -- 89
2020-09-24 02:00:00 13.3 11 Oeste 17 Sudoeste 0 -- -- 90
2020-09-24 01:00:00 14.4 11 Oeste 20 Oeste 0 -- -- 87
2020-09-24 00:00:00 14.6 15 Oeste 24 Oeste 0 -- -- 86
2020-09-23 23:00:00 14.5 10 Sudoeste 14 Oeste 0 -- -- 88
2020-09-23 22:00:00 15.3 11 Oeste 25 Oeste 0 -- -- 84
2020-09-23 21:00:00 15.9 13 Oeste 41 Oeste 0 -- -- 79
2020-09-23 20:00:00 18 21 Oeste 36 Oeste 0 -- -- 67
2020-09-23 19:00:00 19.6 15 Oeste 31 Oeste 0 -- -- 60
2020-09-23 18:00:00 21 21 Oeste 37 Oeste 0 -- -- 55
2020-09-23 17:00:00 20.8 23 Oeste 34 Oeste 0 -- -- 58
2020-09-23 16:00:00 20.2 20 Oeste 35 Noroeste 0 -- -- 63
2020-09-23 15:00:00 15.5 25 Oeste 41 Oeste 0.8 -- -- 83
2020-09-23 14:00:00 18 21 Oeste 31 Oeste 0 -- -- 71
2020-09-23 13:00:00 16.2 22 Oeste 30 Oeste 0 -- -- 80
2020-09-23 12:00:00 17 14 Sudoeste 22 Oeste 0 -- -- 75
2020-09-23 11:00:00 15.4 0 Calma 4 Este 0 -- -- 78
2020-09-23 10:00:00 12 0 Calma 6 Este 0 -- -- 90
2020-09-23 09:00:00 10.2 4 Este 6 Este 0 -- -- 94
2020-09-23 08:00:00 8.8 2 Este 6 Este 0 -- -- 95
2020-09-23 07:00:00 8.8 3 Este 6 Nordeste 0 -- -- 95
2020-09-23 06:00:00 8.8 2 Nordeste 4 Este 0 -- -- 95
2020-09-23 05:00:00 9.1 2 Sudeste 4 Sudeste 0 -- -- 95
2020-09-23 04:00:00 9.8 3 Este 4 Este 0 -- -- 94
2020-09-23 03:00:00 9.5 3 Sudeste 4 Nordeste 0 -- -- 94
2020-09-23 02:00:00 9.6 3 Sudeste 3 Sudeste 0 -- -- 92
2020-09-23 01:00:00 11.3 0 Calma 4 Sudoeste 0 -- -- 87
2020-09-23 00:00:00 13 0 Calma 8 Sudoeste 0 -- -- 77
2020-09-22 23:00:00 13.8 5 Sudoeste 8 Sudoeste 0 -- -- 74
2020-09-22 22:00:00 16 5 Oeste 13 Oeste 0 -- -- 62
2020-09-22 21:00:00 16.4 9 Noroeste 13 Oeste 0 -- -- 60
2020-09-22 20:00:00 17.6 9 Noroeste 21 Noroeste 0 -- -- 56
2020-09-22 19:00:00 19.6 13 Oeste 21 Noroeste 0 -- -- 48
2020-09-22 18:00:00 19.6 15 Oeste 29 Oeste 0 -- -- 47
2020-09-22 17:00:00 21.3 19 Oeste 32 Oeste 0 -- -- 43
2020-09-22 16:00:00 20.7 18 Oeste 27 Oeste 0 -- -- 47
2020-09-22 15:00:00 20.7 13 Oeste 26 Oeste 0 -- -- 46
2020-09-22 14:00:00 20.1 8 Noroeste 20 Oeste 0 -- -- 49
2020-09-22 13:00:00 19 13 Oeste 20 Oeste 0 -- -- 53
2020-09-22 12:00:00 16.9 10 Oeste 20 Oeste 0 -- -- 62
2020-09-22 11:00:00 15.3 5 Oeste 8 Oeste 0 -- -- 71
2020-09-22 10:00:00 12 2 Este 6 Nordeste 0 -- -- 93
2020-09-22 09:00:00 10.3 2 Este 4 Este 0 -- -- 96
2020-09-22 08:00:00 9.6 0 Calma 3 Sudeste 0 -- -- 95
2020-09-22 07:00:00 10.1 0 Calma 4 Este 0 -- -- 95
2020-09-22 06:00:00 10.6 2 Sudeste 7 Este 0 -- -- 93
2020-09-22 05:00:00 10.8 0 Calma 7 Este 0 -- -- 93
2020-09-22 04:00:00 11.6 2 Este 6 Nordeste 0 -- -- 90
2020-09-22 03:00:00 12.2 0 Calma 9 Este 0 -- -- 89
2020-09-22 02:00:00 12.1 4 Nordeste 11 Nordeste 0 -- -- 88
2020-09-22 01:00:00 12.7 4 Este 13 Este 0 -- -- 85
2020-09-22 00:00:00 13.4 6 Nordeste 11 Nordeste 0 -- -- 83
2020-09-21 23:00:00 12.7 4 Nordeste 9 Nordeste 0 -- -- 87
2020-09-21 22:00:00 14.8 3 Este 10 Nordeste 0 -- -- 77
2020-09-21 21:00:00 15 4 Noroeste 9 Noroeste 0 -- -- 74
2020-09-21 20:00:00 18.3 8 Noroeste 18 Noroeste 0 -- -- 58
2020-09-21 19:00:00 21.1 9 Oeste 26 Noroeste 0 -- -- 48
2020-09-21 18:00:00 22.2 8 Noroeste 23 Oeste 0 -- -- 45
2020-09-21 17:00:00 21.3 14 Oeste 27 Oeste 0 -- -- 48
2020-09-21 16:00:00 20.7 14 Oeste 30 Oeste 0 -- -- 49
2020-09-21 15:00:00 20.4 13 Oeste 24 Oeste 0 -- -- 44
2020-09-21 14:00:00 19.4 12 Noroeste 24 Oeste 0 -- -- 50
2020-09-21 13:00:00 18.3 12 Noroeste 21 Noroeste 0 -- -- 59
2020-09-21 12:00:00 17.8 13 Oeste 26 Oeste 0 -- -- 64
2020-09-21 11:00:00 16.1 12 Oeste 20 Oeste 0 -- -- 82
2020-09-21 10:00:00 13.7 13 Oeste 22 Oeste 0 -- -- 93
2020-09-21 09:00:00 13.4 12 Oeste 16 Oeste 0 -- -- 94
2020-09-21 08:00:00 13.4 11 Oeste 16 Oeste 0 -- -- 95
2020-09-21 07:00:00 13.4 12 Oeste 20 Oeste 0 -- -- 95
2020-09-21 06:00:00 13.5 13 Oeste 24 Oeste 0 -- -- 95
2020-09-21 05:00:00 13.6 14 Oeste 24 Oeste 0.2 -- -- 95
2020-09-21 04:00:00 13.7 14 Oeste 23 Oeste 0 -- -- 95
2020-09-21 03:00:00 13.6 12 Sudoeste 18 Sudoeste 0.2 -- -- 95
2020-09-21 02:00:00 13.4 6 Oeste 14 Oeste 1.8 -- -- 95
2020-09-21 01:00:00 13.4 5 Sudoeste 18 Oeste 1.2 -- -- 95
2020-09-21 00:00:00 12.9 0 Calma 9 Oeste 0 -- -- 94
2020-09-20 23:00:00 12.7 5 Noroeste 6 Oeste 0 -- -- 95
2020-09-20 22:00:00 13.6 5 Sudoeste 10 Oeste 0 -- -- 94
2020-09-20 21:00:00 14.4 8 Sudoeste 18 Sudoeste 1.2 -- -- 93
2020-09-20 20:00:00 16 8 Oeste 24 Oeste 0 -- -- 81
2020-09-20 19:00:00 16.9 18 Oeste 32 Oeste 0 -- -- 73
2020-09-20 18:00:00 18.3 17 Oeste 33 Oeste 0 -- -- 72
2020-09-20 17:00:00 18.7 24 Oeste 33 Oeste 0 -- -- 65
2020-09-20 16:00:00 17.9 15 Noroeste 32 Oeste 0 -- -- 71
2020-09-20 15:00:00 17.4 24 Oeste 32 Oeste 0 -- -- 79
2020-09-20 14:00:00 17.5 12 Oeste 20 Noroeste 0 -- -- 79
2020-09-20 13:00:00 15 16 Oeste 29 Oeste 0.4 -- -- 92
2020-09-20 12:00:00 15 17 Oeste 28 Sudoeste 0.2 -- -- 92
2020-09-20 11:00:00 14.9 11 Sudoeste 17 Oeste 0.4 -- -- 93
2020-09-20 10:00:00 14 9 Sudoeste 15 Sudoeste 0.6 -- -- 95
2020-09-20 09:00:00 13.6 8 Oeste 13 Oeste 0.2 -- -- 95
2020-09-20 08:00:00 13.6 8 Oeste 14 Oeste 0 -- -- 94
2020-09-20 07:00:00 13.4 5 Sudoeste 9 Sudoeste 0 -- -- 95
2020-09-20 06:00:00 13.1 6 Sudoeste 17 Oeste 0.2 -- -- 95
2020-09-20 05:00:00 13.2 6 Oeste 13 Oeste 0.8 -- -- 95
2020-09-20 04:00:00 13.1 5 Oeste 10 Sudoeste 0.4 -- -- 94
2020-09-20 03:00:00 12.7 3 Oeste 8 Oeste 0 -- -- 92
2020-09-20 02:00:00 12.2 4 Oeste 10 Oeste 0 -- -- 90
2020-09-20 01:00:00 12.8 7 Oeste 16 Oeste 0 -- -- 87
2020-09-20 00:00:00 13.4 13 Oeste 22 Oeste 0 -- -- 84
2020-09-19 23:00:00 14 5 Oeste 15 Oeste 0 -- -- 85
2020-09-19 22:00:00 14.3 8 Sudoeste 13 Oeste 0 -- -- 88
2020-09-19 21:00:00 15.3 10 Oeste 14 Oeste 0 -- -- 83
2020-09-19 20:00:00 15.7 14 Oeste 25 Oeste 0 -- -- 78
2020-09-19 19:00:00 16.2 18 Oeste 31 Oeste 0.2 -- -- 75
2020-09-19 18:00:00 15.9 22 Oeste 33 Oeste 0 -- -- 80
2020-09-19 17:00:00 16 19 Noroeste 52 Oeste 0 -- -- 82
2020-09-19 16:00:00 17.6 33 Oeste 51 Oeste 0 -- -- 68
2020-09-19 15:00:00 14.7 33 Oeste 50 Oeste 1.8 -- -- 87
2020-09-19 14:00:00 16.3 36 Oeste 60 Oeste 0 -- -- 73
2020-09-19 13:00:00 17.2 35 Sudoeste 54 Sudoeste 0.2 -- -- 71
2020-09-19 12:00:00 15.2 16 Oeste 27 Sudoeste 0.8 -- -- 88
2020-09-19 11:00:00 14.6 5 Sur 10 Sur 0.6 -- -- 90
2020-09-19 10:00:00 13.7 3 Este 10 Este 0 -- -- 95
2020-09-19 09:00:00 12.8 3 Este 6 Este 0.6 -- -- 96
2020-09-19 08:00:00 11.9 5 Nordeste 9 Nordeste 1.6 -- -- 97
2020-09-19 07:00:00 11.4 4 Nordeste 7 Este 0 -- -- 97
2020-09-19 06:00:00 10.7 5 Este 12 Este 0 -- -- 97
2020-09-19 05:00:00 11.3 8 Este 12 Este 0.2 -- -- 96
2020-09-19 04:00:00 12.2 2 Sudeste 16 Nordeste 7.4 -- -- 96
2020-09-19 03:00:00 12.8 10 Norte 14 Norte 21.4 -- -- 95
2020-09-19 02:00:00 13.3 5 Nordeste 9 Este 2.4 -- -- 92
2020-09-19 01:00:00 13.5 3 Este 8 Este 0.2 -- -- 89
2020-09-19 00:00:00 13 3 Nordeste 9 Sudeste 0 -- -- 88
2020-09-18 23:00:00 13 6 Este 11 Norte 0 -- -- 84
2020-09-18 22:00:00 13.7 7 Sudeste 30 Sur 0 -- -- 77
2020-09-18 21:00:00 14.2 11 Sur 22 Sur 0.4 -- -- 79
2020-09-18 20:00:00 15.3 18 Sur 35 Sudoeste 1.2 -- -- 80
2020-09-18 19:00:00 18.7 10 Sur 28 Sudeste 0 -- -- 61
2020-09-18 18:00:00 19.6 17 Sudeste 29 Sudeste 0 -- -- 59
2020-09-18 17:00:00 21.4 16 Sudeste 27 Sudeste 0 -- -- 53
2020-09-18 16:00:00 19.9 20 Sur 32 Sudeste 0 -- -- 56
2020-09-18 15:00:00 19.9 15 Sur 31 Sur 0 -- -- 59
2020-09-18 14:00:00 20.8 15 Sur 32 Sur 0 -- -- 53
2020-09-18 13:00:00 20 19 Sur 29 Sur 0 -- -- 59
2020-09-18 12:00:00 18.6 15 Sur 26 Sudeste 0 -- -- 68
2020-09-18 11:00:00 17.7 4 Este 9 Este 0 -- -- 75
2020-09-18 10:00:00 14.5 4 Nordeste 11 Este 0 -- -- 86
2020-09-18 09:00:00 13.8 8 Este 12 Este 0 -- -- 88
2020-09-18 08:00:00 13.9 12 Oeste 31 Oeste 0 -- -- 86
2020-09-18 07:00:00 16.6 15 Sudeste 29 Sudeste 0.2 -- -- 85
2020-09-18 06:00:00 15.8 15 Este 30 Este 0 -- -- 94
2020-09-18 05:00:00 14.8 12 Este 22 Este 0.4 -- -- 96
2020-09-18 04:00:00 14.8 10 Este 18 Este 5.2 -- -- 96
2020-09-18 03:00:00 14.7 11 Nordeste 18 Este 2.6 -- -- 95
2020-09-18 02:00:00 14.4 10 Nordeste 15 Nordeste 0.6 -- -- 94
2020-09-18 01:00:00 14.4 5 Norte 19 Sudeste 8.4 -- -- 93
2020-09-18 00:00:00 14.9 4 Este 31 Oeste 2.8 -- -- 90
2020-09-17 23:00:00 18 26 Sudoeste 45 Sudoeste 0 -- -- 67
2020-09-17 22:00:00 20.3 8 Este 23 Sudeste 0 -- -- 62
2020-09-17 21:00:00 21.3 9 Sudeste 22 Sudeste 0 -- -- 57
2020-09-17 20:00:00 22.2 16 Sudeste 26 Sudeste 0 -- -- 54
2020-09-17 19:00:00 23.4 18 Sur 33 Sur 0 -- -- 49
2020-09-17 18:00:00 24.4 17 Sur 34 Sudeste 0 -- -- 44
2020-09-17 17:00:00 26.7 19 Sur 35 Sudeste 0 -- -- 36
2020-09-17 16:00:00 26.3 17 Sur 35 Sudeste 0 -- -- 40
2020-09-17 15:00:00 25.1 17 Sur 30 Sudeste 0 -- -- 43
2020-09-17 14:00:00 25.2 22 Sudeste 34 Sudeste 0 -- -- 44
2020-09-17 13:00:00 23.6 17 Sudeste 26 Sudeste 0 -- -- 49
2020-09-17 12:00:00 22.3 8 Sur 15 Sur 0 -- -- 55
2020-09-17 11:00:00 20.1 10 Sur 14 Sudeste 0 -- -- 63
2020-09-17 10:00:00 18.7 9 Sudeste 17 Sudeste 0.2 -- -- 67
2020-09-17 09:00:00 17.4 8 Este 15 Este 0 -- -- 72
2020-09-17 08:00:00 16.6 3 Nordeste 9 Nordeste 0 -- -- 73
2020-09-17 07:00:00 17 4 Este 10 Este 0 -- -- 73
2020-09-17 06:00:00 16.6 3 Norte 9 Este 0 -- -- 77
2020-09-17 05:00:00 16.1 3 Nordeste 12 Este 0 -- -- 82
2020-09-17 04:00:00 16.3 4 Este 12 Este 0 -- -- 84
2020-09-17 03:00:00 16.9 3 Oeste 16 Oeste 0 -- -- 84
2020-09-17 02:00:00 17.3 4 Nordeste 15 Nordeste 0 -- -- 79
2020-09-17 01:00:00 18.6 7 Nordeste 23 Sudeste 0.2 -- -- 75
2020-09-17 00:00:00 21.8 7 Sur 14 Sur 0 -- -- 52
2020-09-16 23:00:00 21.6 8 Este 12 Este 0 -- -- 53
2020-09-16 22:00:00 22.2 7 Nordeste 19 Este 0 -- -- 50
2020-09-16 21:00:00 24.3 11 Sudeste 28 Este 0 -- -- 44
2020-09-16 20:00:00 26.5 16 Sudeste 25 Este 0 -- -- 37
2020-09-16 19:00:00 28.6 8 Sur 15 Sudoeste 0 -- -- 28
2020-09-16 18:00:00 28.7 10 Sur 23 Sur 0 -- -- 28
2020-09-16 17:00:00 29.7 15 Sudeste 27 Sur 0 -- -- 24
2020-09-16 16:00:00 29.1 15 Este 25 Sudeste 0 -- -- 32
2020-09-16 15:00:00 29 13 Este 26 Este 0 -- -- 31
2020-09-16 14:00:00 27.8 11 Sudeste 28 Sudeste 0 -- -- 35
2020-09-16 13:00:00 27.5 17 Este 26 Este 0 -- -- 38
2020-09-16 12:00:00 25.2 12 Este 15 Este 0 -- -- 46
2020-09-16 11:00:00 21.1 5 Este 9 Sudeste 0 -- -- 59
2020-09-16 10:00:00 15.8 4 Nordeste 8 Este 0 -- -- 79
2020-09-16 09:00:00 12.1 5 Nordeste 10 Nordeste 0 -- -- 94
2020-09-16 08:00:00 10 4 Sudeste 8 Este 0 -- -- 94
2020-09-16 07:00:00 11 3 Nordeste 6 Nordeste 0 -- -- 94
2020-09-16 06:00:00 10.9 3 Nordeste 6 Nordeste 0 -- -- 93
2020-09-16 05:00:00 10.9 4 Nordeste 9 Nordeste 0 -- -- 93
2020-09-16 04:00:00 11.8 4 Nordeste 6 Nordeste 0 -- -- 92
2020-09-16 03:00:00 12.3 2 Este 4 Este 0 -- -- 92
2020-09-16 02:00:00 13.3 3 Este 4 Sudeste 0 -- -- 88
2020-09-16 01:00:00 13.9 2 Nordeste 6 Este 0 -- -- 86
2020-09-16 00:00:00 15.5 3 Este 5 Este 0 -- -- 81
2020-09-15 23:00:00 16.8 0 Calma 6 Este 0 -- -- 78
2020-09-15 22:00:00 18.5 2 Noroeste 8 Sur 0 -- -- 69
2020-09-15 21:00:00 20.8 4 Noroeste 6 Noroeste 0 -- -- 55
2020-09-15 20:00:00 23.8 4 Noroeste 13 Oeste 0 -- -- 47
2020-09-15 19:00:00 26.3 3 Sur 13 Sudeste 0 -- -- 40
2020-09-15 18:00:00 26.6 8 Sudeste 14 Sudeste 0 -- -- 39
2020-09-15 17:00:00 27 5 Sur 15 Oeste 0 -- -- 38
2020-09-15 16:00:00 25.1 8 Sudoeste 17 Sudoeste 0 -- -- 45
2020-09-15 15:00:00 25 12 Sur 19 Sudeste 0 -- -- 44
2020-09-15 14:00:00 25.9 5 Sudeste 16 Sudeste 0 -- -- 45
2020-09-15 13:00:00 25.1 6 Sudeste 19 Sudeste 0 -- -- 47
2020-09-15 12:00:00 22.5 11 Sudeste 18 Sudeste 0.2 -- -- 59
2020-09-15 11:00:00 19.3 14 Este 22 Este 0 -- -- 71
2020-09-15 10:00:00 15.5 10 Este 26 Este 0 -- -- 85
2020-09-15 09:00:00 15.2 15 Sudeste 23 Sudeste 0 -- -- 84
2020-09-15 08:00:00 14.4 4 Nordeste 13 Este 0 -- -- 88
2020-09-15 07:00:00 14.5 8 Este 18 Este 1.4 -- -- 88
2020-09-15 06:00:00 15.1 19 Oeste 35 Oeste 0.8 -- -- 84
2020-09-15 05:00:00 16.4 10 Oeste 19 Oeste 0 -- -- 70
2020-09-15 04:00:00 16.8 8 Sur 13 Sur 0 -- -- 67
2020-09-15 03:00:00 17.3 7 Sudoeste 22 Noroeste 0 -- -- 62
2020-09-15 02:00:00 18.8 13 Noroeste 38 Oeste 0 -- -- 58
2020-09-15 01:00:00 20.3 7 Este 16 Este 0 -- -- 47
2020-09-15 00:00:00 19.3 8 Este 15 Este 0 -- -- 52
2020-09-14 23:00:00 19.9 8 Este 15 Este 0 -- -- 50
2020-09-14 22:00:00 20.7 8 Este 22 Sudeste 0 -- -- 46
2020-09-14 21:00:00 22.5 15 Sudeste 23 Sudeste 0 -- -- 41
2020-09-14 20:00:00 24.2 11 Sudeste 20 Sudeste 0 -- -- 39
2020-09-14 19:00:00 24.5 18 Sudeste 31 Sudeste 0 -- -- 39
2020-09-14 18:00:00 25.8 16 Sur 28 Sur 0 -- -- 38
2020-09-14 17:00:00 25.9 17 Sur 27 Sur 0 -- -- 36
2020-09-14 16:00:00 26.1 18 Sur 29 Sudeste 0 -- -- 34
2020-09-14 15:00:00 27.9 14 Sur 36 Sudeste 0 -- -- 28
2020-09-14 14:00:00 27.1 17 Sudeste 31 Sudeste 0 -- -- 31
2020-09-14 13:00:00 26 18 Sudeste 35 Sudeste 0 -- -- 34
2020-09-14 12:00:00 25.1 22 Sudeste 35 Sudeste 0 -- -- 36
2020-09-14 11:00:00 21.6 19 Este 29 Este 0 -- -- 48
2020-09-14 10:00:00 20.2 13 Este 22 Este 0 -- -- 52
2020-09-14 09:00:00 17 8 Nordeste 14 Nordeste 0 -- -- 59
2020-09-14 08:00:00 15.5 9 Este 13 Este 0 -- -- 66
2020-09-14 07:00:00 14.9 4 Nordeste 12 Nordeste 0 -- -- 65
2020-09-14 06:00:00 15.1 7 Nordeste 13 Este 0 -- -- 61
2020-09-14 05:00:00 15 5 Nordeste 10 Nordeste 0 -- -- 58
2020-09-14 04:00:00 15.5 5 Nordeste 9 Este 0 -- -- 53
2020-09-14 03:00:00 16.6 3 Este 8 Este 0 -- -- 48
2020-09-14 02:00:00 17.8 5 Este 9 Este 0 -- -- 45
2020-09-14 01:00:00 17.8 0 Calma 6 Este 0 -- -- 46
2020-09-14 00:00:00 17.8 4 Nordeste 7 Este 0 -- -- 47
2020-09-13 23:00:00 17.3 3 Nordeste 10 Nordeste 0 -- -- 49
2020-09-13 22:00:00 20.5 4 Sudeste 9 Sudeste 0 -- -- 41
2020-09-13 21:00:00 25 5 Sur 14 Sur 0 -- -- 31
2020-09-13 20:00:00 27 9 Sur 29 Sudoeste 0 -- -- 28
2020-09-13 19:00:00 28.7 13 Sur 26 Sudoeste 0 -- -- 26
2020-09-13 18:00:00 29.4 17 Sur 30 Sur 0 -- -- 24
2020-09-13 17:00:00 31.7 15 Sur 29 Sur 0 -- -- 22
2020-09-13 16:00:00 31.7 10 Sudoeste 23 Sudoeste 0 -- -- 22
2020-09-13 15:00:00 31.6 12 Sur 24 Este 0 -- -- 23
2020-09-13 14:00:00 30.9 10 Sur 27 Sudeste 0 -- -- 23
2020-09-13 13:00:00 30.5 8 Sudeste 22 Sudeste 0 -- -- 26
2020-09-13 12:00:00 27.8 12 Este 22 Este 0 -- -- 33
2020-09-13 11:00:00 24 16 Este 22 Este 0 -- -- 42
2020-09-13 10:00:00 20.6 13 Este 18 Este 0 -- -- 51
2020-09-13 09:00:00 16.7 5 Este 18 Este 0 -- -- 60
2020-09-13 08:00:00 14.4 9 Este 20 Este 0 -- -- 66
2020-09-13 07:00:00 14.2 10 Este 18 Este 0 -- -- 65
2020-09-13 06:00:00 12.3 7 Nordeste 16 Este 0 -- -- 66
2020-09-13 05:00:00 12.4 12 Este 15 Este 0 -- -- 65
2020-09-13 04:00:00 13.1 6 Este 10 Este 0 -- -- 61
2020-09-13 03:00:00 13.9 7 Nordeste 11 Este 0 -- -- 60
2020-09-13 02:00:00 13.9 2 Este 17 Este 0 -- -- 59
2020-09-13 01:00:00 16.9 8 Nordeste 13 Este 0 -- -- 53
2020-09-13 00:00:00 18.5 7 Este 14 Este 0 -- -- 48
2020-09-12 23:00:00 20 9 Este 13 Este 0 -- -- 42
2020-09-12 22:00:00 20.8 6 Nordeste 16 Nordeste 0 -- -- 42
2020-09-12 21:00:00 21.6 10 Este 18 Este 0 -- -- 30
2020-09-12 20:00:00 27.8 0 Calma 8 Sudeste 0 -- -- 17
2020-09-12 19:00:00 32.3 4 Este 14 Este 0 -- -- 14
2020-09-12 18:00:00 31.9 5 Sudeste 15 Sudoeste 0 -- -- 14
2020-09-12 17:00:00 30.2 12 Sudoeste 18 Oeste 0 -- -- 15
2020-09-12 16:00:00 30.8 4 Noroeste 14 Norte 0 -- -- 15
2020-09-12 15:00:00 29.7 7 Sudeste 18 Oeste 0 -- -- 17
2020-09-12 14:00:00 28.7 8 Este 21 Este 0 -- -- 22
2020-09-12 13:00:00 27.4 6 Este 23 Este 0 -- -- 26
2020-09-12 12:00:00 25.3 13 Este 20 Este 0 -- -- 37
2020-09-12 11:00:00 21.6 9 Este 15 Este 0 -- -- 43
2020-09-12 10:00:00 14.4 3 Sudeste 10 Este 0 -- -- 53
2020-09-12 09:00:00 9.4 6 Nordeste 9 Nordeste 0 -- -- 72
2020-09-12 08:00:00 6.6 3 Este 5 Este 0 -- -- 83
2020-09-12 07:00:00 7.7 2 Este 4 Nordeste 0 -- -- 80
2020-09-12 06:00:00 7.9 4 Nordeste 10 Este 0 -- -- 78
2020-09-12 05:00:00 8.8 3 Nordeste 8 Nordeste 0 -- -- 75
2020-09-12 04:00:00 8.9 3 Este 6 Este 0 -- -- 75
2020-09-12 03:00:00 9.4 3 Este 5 Este 0 -- -- 74
2020-09-12 02:00:00 10.5 4 Sudeste 6 Sudeste 0 -- -- 70
2020-09-12 01:00:00 12.1 2 Sudeste 6 Sudeste 0 -- -- 64
2020-09-12 00:00:00 14.4 0 Calma 5 Este 0 -- -- 57
2020-09-11 23:00:00 18.7 3 Este 9 Este 0 -- -- 43
2020-09-11 22:00:00 21.1 7 Este 23 Norte 0 -- -- 37
2020-09-11 21:00:00 22.7 15 Noroeste 25 Noroeste 0 -- -- 26
2020-09-11 20:00:00 26.5 17 Noroeste 28 Noroeste 0 -- -- 21
2020-09-11 19:00:00 28.5 15 Oeste 29 Oeste 0 -- -- 21
2020-09-11 18:00:00 29.1 15 Oeste 26 Oeste 0 -- -- 18
2020-09-11 17:00:00 28.9 17 Noroeste 31 Oeste 0 -- -- 17
2020-09-11 16:00:00 28.2 20 Oeste 31 Oeste 0 -- -- 18
2020-09-11 15:00:00 27.2 13 Noroeste 27 Noroeste 0 -- -- 24
2020-09-11 14:00:00 26 14 Noroeste 27 Oeste 0 -- -- 27
2020-09-11 13:00:00 25 12 Noroeste 21 Oeste 0 -- -- 31
2020-09-11 12:00:00 24.2 5 Sur 11 Sur 0 -- -- 34
2020-09-11 11:00:00 20.6 6 Este 10 Sudeste 0 -- -- 44
2020-09-11 10:00:00 14.4 4 Este 6 Este 0 -- -- 61
2020-09-11 09:00:00 9.6 4 Este 6 Nordeste 0 -- -- 75
2020-09-11 08:00:00 6.3 3 Nordeste 8 Nordeste 0 -- -- 86
2020-09-11 07:00:00 6.5 4 Nordeste 8 Nordeste 0 -- -- 84
2020-09-11 06:00:00 6.5 6 Este 11 Nordeste 0 -- -- 84
2020-09-11 05:00:00 7.5 6 Nordeste 9 Nordeste 0 -- -- 80
2020-09-11 04:00:00 8.1 3 Este 6 Este 0 -- -- 78
2020-09-11 03:00:00 8.2 4 Sudeste 5 Este 0 -- -- 77
2020-09-11 02:00:00 9.4 2 Sudeste 5 Sudeste 0 -- -- 74
2020-09-11 01:00:00 11.2 2 Este 6 Sudeste 0 -- -- 68
2020-09-11 00:00:00 13.8 0 Calma 0 Calma 0 -- -- 60
2020-09-10 23:00:00 16.5 0 Calma 6 Nordeste 0 -- -- 48
2020-09-10 22:00:00 19.5 5 Nordeste 12 Este 0 -- -- 41
2020-09-10 21:00:00 21.8 10 Nordeste 24 Este 0 -- -- 36
2020-09-10 20:00:00 26.2 11 Este 27 Oeste 0 -- -- 29
2020-09-10 19:00:00 28 12 Oeste 25 Oeste 0 -- -- 27
2020-09-10 18:00:00 28.7 10 Oeste 26 Oeste 0 -- -- 27
2020-09-10 17:00:00 28.4 6 Sudoeste 24 Oeste 0 -- -- 29
2020-09-10 16:00:00 27.2 11 Oeste 26 Oeste 0 -- -- 31
2020-09-10 15:00:00 26.5 10 Sudoeste 23 Sudoeste 0 -- -- 35
2020-09-10 14:00:00 27 5 Noroeste 19 Este 0 -- -- 33
2020-09-10 13:00:00 25 6 Noroeste 17 Norte 0 -- -- 38
2020-09-10 12:00:00 24.2 6 Este 14 Nordeste 0 -- -- 40
2020-09-10 11:00:00 21.1 6 Sudeste 9 Sudeste 0 -- -- 47
2020-09-10 10:00:00 15.2 2 Este 5 Este 0 -- -- 62
2020-09-10 09:00:00 10.2 4 Este 7 Este 0 -- -- 78
2020-09-10 08:00:00 7.3 3 Sudeste 6 Sudeste 0 -- -- 89
2020-09-10 07:00:00 7.2 3 Este 5 Sudeste 0 -- -- 86
2020-09-10 06:00:00 7.9 0 Calma 5 Sur 0 -- -- 84
2020-09-10 05:00:00 8.4 3 Sur 5 Sudeste 0 -- -- 80
2020-09-10 04:00:00 8.9 4 Sudeste 7 Sudeste 0 -- -- 78
2020-09-10 03:00:00 9.9 2 Sudoeste 9 Este 0 -- -- 73
2020-09-10 02:00:00 11.7 0 Calma 8 Sudeste 0 -- -- 66
2020-09-10 01:00:00 12 0 Calma 9 Este 0 -- -- 66
2020-09-10 00:00:00 14.1 0 Calma 8 Sudeste 0 -- -- 56
2020-09-09 23:00:00 16.9 0 Calma 7 Nordeste 0 -- -- 47
2020-09-09 22:00:00 19.7 5 Norte 17 Este 0 -- -- 39
2020-09-09 21:00:00 22.7 14 Este 24 Este 0 -- -- 33
2020-09-09 20:00:00 26.3 8 Oeste 14 Oeste 0 -- -- 26
2020-09-09 19:00:00 27.3 10 Noroeste 26 Oeste 0 -- -- 26
2020-09-09 18:00:00 27.5 15 Oeste 25 Oeste 0 -- -- 26
2020-09-09 17:00:00 27.8 9 Sudoeste 22 Oeste 0 -- -- 25
2020-09-09 16:00:00 27.8 5 Norte 24 Este 0 -- -- 25
2020-09-09 15:00:00 26.3 12 Sudeste 25 Sudeste 0 -- -- 28
2020-09-09 14:00:00 25.4 6 Oeste 18 Este 0 -- -- 29
2020-09-09 13:00:00 24.7 3 Oeste 19 Sudeste 0 -- -- 31
2020-09-09 12:00:00 24.1 6 Este 16 Este 0 -- -- 32
2020-09-09 11:00:00 20.3 6 Sudeste 13 Este 0 -- -- 39
2020-09-09 10:00:00 15.8 8 Este 12 Este 0 -- -- 48
2020-09-09 09:00:00 10.3 3 Este 9 Este 0 -- -- 65
2020-09-09 08:00:00 6.8 3 Nordeste 8 Nordeste 0 -- -- 77
2020-09-09 07:00:00 7.8 4 Este 8 Nordeste 0 -- -- 71
2020-09-09 06:00:00 7.6 2 Nordeste 7 Este 0 -- -- 71
2020-09-09 05:00:00 9.7 4 Este 8 Este 0 -- -- 63
2020-09-09 04:00:00 8.8 3 Este 7 Este 0 -- -- 66
2020-09-09 03:00:00 8.9 4 Este 7 Este 0 -- -- 66
2020-09-09 02:00:00 11.1 4 Nordeste 6 Este 0 -- -- 57
2020-09-09 01:00:00 12.8 6 Este 10 Este 0 -- -- 52
2020-09-09 00:00:00 14.5 6 Este 15 Este 0 -- -- 47
2020-09-08 23:00:00 16.3 10 Este 16 Este 0 -- -- 42
2020-09-08 22:00:00 16.4 9 Este 15 Este 0 -- -- 38
2020-09-08 21:00:00 19.4 12 Este 21 Este 0 -- -- 31
2020-09-08 20:00:00 22.3 17 Sudeste 26 Sudeste 0 -- -- 25
2020-09-08 19:00:00 24.3 14 Sudeste 31 Sudeste 0 -- -- 23
2020-09-08 18:00:00 24.2 20 Sudeste 33 Sudeste 0 -- -- 24
2020-09-08 17:00:00 25.1 12 Este 29 Sudeste 0 -- -- 23
2020-09-08 16:00:00 24 14 Sudeste 35 Sudeste 0 -- -- 25
2020-09-08 15:00:00 22.7 20 Sudeste 34 Sudeste 0 -- -- 29
2020-09-08 14:00:00 21.7 19 Sudeste 32 Este 0 -- -- 32
2020-09-08 13:00:00 20.1 20 Sudeste 32 Sudeste 0 -- -- 36
2020-09-08 12:00:00 19 18 Este 28 Este 0 -- -- 42
2020-09-08 11:00:00 16.2 19 Este 28 Este 0 -- -- 49
2020-09-08 10:00:00 12.3 3 Este 9 Este 0 -- -- 63
2020-09-08 09:00:00 5.8 3 Este 5 Este 0 -- -- 76
2020-09-08 08:00:00 2 0 Calma 4 Sudeste 0 -- -- 86
2020-09-08 07:00:00 2.2 2 Norte 4 Sudeste 0 -- -- 84
2020-09-08 06:00:00 3.1 3 Sudeste 6 Sudeste 0 -- -- 81
2020-09-08 05:00:00 4.2 0 Calma 12 Sudeste 0 -- -- 76
2020-09-08 04:00:00 4.7 5 Noroeste 11 Sudeste 0 -- -- 74
2020-09-08 03:00:00 5.4 3 Nordeste 8 Sur 0 -- -- 69
2020-09-08 02:00:00 6.8 3 Sudeste 9 Sudeste 0 -- -- 65
2020-09-08 01:00:00 8.1 0 Calma 8 Nordeste 0 -- -- 60
2020-09-08 00:00:00 10.5 5 Nordeste 9 Nordeste 0 -- -- 50
2020-09-07 23:00:00 11.3 3 Oeste 9 Sudeste 0 -- -- 47
2020-09-07 22:00:00 13.6 0 Calma 14 Nordeste 0 -- -- 41
2020-09-07 21:00:00 16.4 9 Nordeste 26 Este 0 -- -- 34
2020-09-07 20:00:00 19.8 18 Nordeste 31 Nordeste 0 -- -- 30
2020-09-07 19:00:00 23.4 16 Norte 35 Nordeste 0 -- -- 25
2020-09-07 18:00:00 25.2 6 Nordeste 27 Noroeste 0 -- -- 24
2020-09-07 17:00:00 24.3 8 Noroeste 28 Oeste 0 -- -- 27
2020-09-07 16:00:00 23.1 16 Oeste 29 Oeste 0 -- -- 30
2020-09-07 15:00:00 21.6 13 Sudoeste 27 Noroeste 0 -- -- 33
2020-09-07 14:00:00 20.6 8 Oeste 17 Oeste 0 -- -- 35
2020-09-07 13:00:00 19.8 5 Noroeste 18 Oeste 0 -- -- 38
2020-09-07 12:00:00 17.4 7 Oeste 15 Noroeste 0 -- -- 45
2020-09-07 11:00:00 15.6 5 Norte 13 Noroeste 0 -- -- 50
2020-09-07 10:00:00 12.1 7 Sudoeste 13 Nordeste 0 -- -- 66
2020-09-07 09:00:00 7.4 0 Calma 13 Este 0 -- -- 82
2020-09-07 08:00:00 4.6 2 Sudeste 4 Norte 0 -- -- 90
2020-09-07 07:00:00 4.1 0 Calma 5 Sudeste 0 -- -- 91
2020-09-07 06:00:00 5.1 2 Sudeste 4 Este 0 -- -- 89
2020-09-07 05:00:00 5.9 0 Calma 4 Sudeste 0 -- -- 88
2020-09-07 04:00:00 6.9 3 Este 7 Este 0 -- -- 84
2020-09-07 03:00:00 8.5 2 Sur 6 Nordeste 0 -- -- 80
2020-09-07 02:00:00 10.7 2 Este 9 Este 0 -- -- 71
2020-09-07 01:00:00 12 5 Este 17 Este 0 -- -- 67
2020-09-07 00:00:00 14.2 12 Sudeste 18 Sudeste 0 -- -- 61
2020-09-06 23:00:00 15.8 7 Sudeste 18 Sudeste 0 -- -- 58
2020-09-06 22:00:00 17.2 13 Sudeste 22 Este 0 -- -- 54
2020-09-06 21:00:00 19.6 5 Este 19 Noroeste 0 -- -- 48
2020-09-06 20:00:00 25.4 16 Noroeste 33 Oeste 0 -- -- 34
2020-09-06 19:00:00 27 24 Noroeste 38 Noroeste 0 -- -- 29
2020-09-06 18:00:00 28.2 23 Noroeste 35 Noroeste 0 -- -- 28
2020-09-06 17:00:00 28.7 21 Noroeste 36 Noroeste 0 -- -- 30
2020-09-06 16:00:00 28.6 17 Oeste 31 Oeste 0 -- -- 32
2020-09-06 15:00:00 27.7 10 Oeste 25 Oeste 0 -- -- 35
2020-09-06 14:00:00 27.1 7 Sudoeste 17 Sudoeste 0 -- -- 38
2020-09-06 13:00:00 25.3 9 Sur 18 Este 0 -- -- 41
2020-09-06 12:00:00 23.1 12 Este 23 Este 0 -- -- 49
2020-09-06 11:00:00 19.9 15 Este 24 Este 0 -- -- 60
2020-09-06 10:00:00 16.5 17 Este 27 Este 0 -- -- 73
2020-09-06 09:00:00 14.5 13 Nordeste 19 Este 0 -- -- 78
2020-09-06 08:00:00 12.8 5 Este 12 Este 0 -- -- 84
2020-09-06 07:00:00 13 9 Este 19 Este 0 -- -- 82
2020-09-06 06:00:00 13.1 13 Este 18 Este 0 -- -- 83
2020-09-06 05:00:00 13.5 10 Este 17 Este 0 -- -- 82
2020-09-06 04:00:00 14.1 12 Este 15 Este 0 -- -- 81
2020-09-06 03:00:00 15.1 11 Este 18 Nordeste 0 -- -- 77
2020-09-06 02:00:00 16 9 Nordeste 16 Este 0 -- -- 75
2020-09-06 01:00:00 17 10 Este 15 Sudeste 0 -- -- 72
2020-09-06 00:00:00 18.2 6 Este 19 Sudeste 0 -- -- 67
2020-09-05 23:00:00 20.4 7 Sudeste 15 Sudeste 0 -- -- 60
2020-09-05 22:00:00 21.8 10 Este 21 Este 0 -- -- 55
2020-09-05 21:00:00 23.8 12 Este 33 Este 0 -- -- 49
2020-09-05 20:00:00 27.6 19 Este 34 Este 0 -- -- 37
2020-09-05 19:00:00 32.5 6 Sur 15 Noroeste 0 -- -- 18
2020-09-05 18:00:00 32 8 Norte 42 Oeste 0 -- -- 20
2020-09-05 17:00:00 32 10 Sudoeste 22 Oeste 0 -- -- 21
2020-09-05 16:00:00 31 11 Sur 18 Sudoeste 0 -- -- 22
2020-09-05 15:00:00 30.6 8 Sudoeste 17 Oeste 0 -- -- 25
2020-09-05 14:00:00 30.7 6 Sudeste 18 Sudeste 0 -- -- 26
2020-09-05 13:00:00 28.5 8 Sudeste 17 Este 0 -- -- 28
2020-09-05 12:00:00 26.9 5 Este 16 Este 0 -- -- 32
2020-09-05 11:00:00 23.1 10 Sudeste 18 Este 0 -- -- 39
2020-09-05 10:00:00 18.7 5 Este 8 Este 0 -- -- 50
2020-09-05 09:00:00 13.6 3 Nordeste 6 Nordeste 0 -- -- 66
2020-09-05 08:00:00 10.9 0 Calma 4 Este 0 -- -- 75
2020-09-05 07:00:00 12 2 Este 6 Este 0 -- -- 70
2020-09-05 06:00:00 12.9 3 Nordeste 8 Este 0 -- -- 66
2020-09-05 05:00:00 14.3 4 Este 8 Este 0 -- -- 61
2020-09-05 04:00:00 15.3 2 Este 10 Este 0 -- -- 58
2020-09-05 03:00:00 17.2 5 Este 9 Nordeste 0 -- -- 52
2020-09-05 02:00:00 18.9 6 Este 15 Este 0 -- -- 47
2020-09-05 01:00:00 19.3 5 Nordeste 13 Nordeste 0 -- -- 45
2020-09-05 00:00:00 18.6 3 Nordeste 11 Este 0 -- -- 40
2020-09-04 23:00:00 22.8 0 Calma 14 Sur 0 -- -- 33
2020-09-04 22:00:00 25.7 11 Sur 24 Sudeste 0 -- -- 28
2020-09-04 21:00:00 26.8 10 Sudeste 21 Sudeste 0 -- -- 27
2020-09-04 20:00:00 29.9 14 Sudeste 23 Sudeste 0 -- -- 23
2020-09-04 19:00:00 32.4 13 Sudeste 17 Este 0 -- -- 22
2020-09-04 18:00:00 33.2 6 Oeste 30 Este 0 -- -- 22
2020-09-04 17:00:00 33.2 6 Este 19 Nordeste 0 -- -- 22
2020-09-04 16:00:00 31.3 10 Nordeste 21 Nordeste 0 -- -- 23
2020-09-04 15:00:00 30.7 10 Sudeste 21 Este 0 -- -- 24
2020-09-04 14:00:00 30.1 10 Nordeste 15 Nordeste 0 -- -- 26
2020-09-04 13:00:00 29.7 5 Nordeste 14 Este 0 -- -- 26
2020-09-04 12:00:00 26.6 8 Este 16 Este 0 -- -- 34
2020-09-04 11:00:00 22.9 12 Este 18 Este 0 -- -- 45
2020-09-04 10:00:00 19.8 12 Este 19 Este 0 -- -- 53
2020-09-04 09:00:00 16 3 Este 9 Este 0 -- -- 59
2020-09-04 08:00:00 12.8 2 Este 7 Este 0 -- -- 64
2020-09-04 07:00:00 12.6 4 Este 11 Este 0 -- -- 62
2020-09-04 06:00:00 12.6 7 Este 12 Este 0 -- -- 60
2020-09-04 05:00:00 12 5 Este 10 Este 0 -- -- 60
2020-09-04 04:00:00 11.9 6 Este 12 Este 0 -- -- 59
2020-09-04 03:00:00 12.2 7 Este 11 Este 0 -- -- 55
2020-09-04 02:00:00 12 4 Este 9 Este 0 -- -- 54
2020-09-04 01:00:00 13.4 3 Sudeste 6 Este 0 -- -- 47
2020-09-04 00:00:00 16.5 4 Este 8 Este 0 -- -- 40
2020-09-03 23:00:00 15.6 3 Este 13 Norte 0 -- -- 36
2020-09-03 22:00:00 18.1 3 Sudeste 5 Sudeste 0 -- -- 37
2020-09-03 21:00:00 22.8 4 Noroeste 6 Noroeste 0 -- -- 20
2020-09-03 20:00:00 30.6 0 Calma 6 Sur 0 -- -- 14
2020-09-03 19:00:00 32 3 Sur 10 Sur 0 -- -- 12
2020-09-03 18:00:00 30.7 6 Sur 15 Sudeste 0 -- -- 12
2020-09-03 17:00:00 30.9 5 Sudeste 17 Sudoeste 0 -- -- 9
2020-09-03 16:00:00 30.1 3 Norte 19 Noroeste 0 -- -- 12
2020-09-03 15:00:00 28.7 6 Sudeste 15 Sur 0 -- -- 12
2020-09-03 14:00:00 27.1 5 Sudoeste 18 Este 0 -- -- 18
2020-09-03 13:00:00 26.4 4 Norte 16 Sudeste 0 -- -- 22
2020-09-03 12:00:00 23.8 5 Este 14 Este 0 -- -- 31
2020-09-03 11:00:00 19 11 Este 15 Este 0 -- -- 44
2020-09-03 10:00:00 14 6 Este 8 Este 0 -- -- 57
2020-09-03 09:00:00 8.8 3 Este 5 Este 0 -- -- 75
2020-09-03 08:00:00 5.4 0 Calma 2 Nordeste 0 -- -- 84
2020-09-03 07:00:00 5.6 3 Nordeste 6 Este 0 -- -- 83
2020-09-03 06:00:00 6.5 4 Este 6 Este 0 -- -- 80
2020-09-03 05:00:00 6.9 4 Nordeste 9 Nordeste 0 -- -- 79
2020-09-03 04:00:00 7.3 7 Este 10 Nordeste 0 -- -- 76
2020-09-03 03:00:00 7.7 3 Este 6 Este 0 -- -- 75
2020-09-03 02:00:00 9 3 Sudeste 5 Este 0 -- -- 70
2020-09-03 01:00:00 12.1 3 Este 5 Este 0 -- -- 58
2020-09-03 00:00:00 14.8 0 Calma 4 Nordeste 0 -- -- 48
2020-09-02 23:00:00 16.7 0 Calma 17 Nordeste 0 -- -- 41
2020-09-02 22:00:00 19.3 15 Noroeste 26 Noroeste 0 -- -- 35
2020-09-02 21:00:00 21.2 15 Noroeste 23 Noroeste 0 -- -- 31
2020-09-02 20:00:00 24.9 19 Oeste 27 Oeste 0 -- -- 26
2020-09-02 19:00:00 26.6 12 Oeste 26 Noroeste 0 -- -- 24
2020-09-02 18:00:00 26.9 9 Oeste 24 Oeste 0 -- -- 24
2020-09-02 17:00:00 26.7 9 Norte 18 Norte 0 -- -- 25
2020-09-02 16:00:00 25 13 Oeste 22 Sudoeste 0 -- -- 27
2020-09-02 15:00:00 24.3 5 Sudoeste 23 Oeste 0 -- -- 28
2020-09-02 14:00:00 22.9 7 Sudoeste 17 Oeste 0 -- -- 32
2020-09-02 13:00:00 22.4 8 Sudoeste 15 Sudeste 0 -- -- 35
2020-09-02 12:00:00 21 7 Este 17 Este 0 -- -- 39
2020-09-02 11:00:00 17.9 7 Sudeste 15 Este 0 -- -- 48
2020-09-02 10:00:00 13.5 4 Este 6 Este 0 -- -- 62
2020-09-02 09:00:00 8 3 Este 6 Este 0 -- -- 78
2020-09-02 08:00:00 4.6 4 Este 10 Este 0 -- -- 89
2020-09-02 07:00:00 4.7 0 Calma 5 Este 0 -- -- 88
2020-09-02 06:00:00 5.1 3 Sudeste 5 Sudeste 0 -- -- 87
2020-09-02 05:00:00 5.7 0 Calma 4 Sudeste 0 -- -- 84
2020-09-02 04:00:00 6.5 4 Sudeste 5 Sudeste 0 -- -- 82
2020-09-02 03:00:00 7.6 2 Sudeste 5 Sudeste 0 -- -- 78
2020-09-02 02:00:00 9.5 2 Sudeste 6 Este 0 -- -- 71
2020-09-02 01:00:00 12.3 2 Este 8 Este 0 -- -- 60
2020-09-02 00:00:00 14.1 0 Calma 13 Este 0 -- -- 53
2020-09-01 23:00:00 16 10 Este 16 Este 0 -- -- 48
2020-09-01 22:00:00 17.3 10 Nordeste 18 Este 0 -- -- 43
2020-09-01 21:00:00 20 16 Este 29 Este 0 -- -- 33
2020-09-01 20:00:00 24.3 11 Noroeste 23 Noroeste 0 -- -- 24
2020-09-01 19:00:00 25.4 8 Oeste 23 Noroeste 0 -- -- 22
2020-09-01 18:00:00 25.7 9 Noroeste 31 Oeste 0 -- -- 21
2020-09-01 17:00:00 25.1 11 Oeste 26 Oeste 0 -- -- 21
2020-09-01 16:00:00 25.1 14 Noroeste 32 Sudoeste 0 -- -- 22
2020-09-01 15:00:00 24.2 12 Oeste 26 Sudoeste 0 -- -- 24
2020-09-01 14:00:00 23.8 10 Sudoeste 21 Oeste 0 -- -- 25
2020-09-01 13:00:00 23.4 5 Sur 13 Sudeste 0 -- -- 28
2020-09-01 12:00:00 20 7 Sur 13 Sur 0 -- -- 38
2020-09-01 11:00:00 15.6 3 Sur 6 Sudoeste 0 -- -- 51
2020-09-01 10:00:00 13.1 4 Este 6 Este 0 -- -- 57
2020-09-01 09:00:00 11.1 3 Sudeste 8 Sur 0 -- -- 66
2020-09-01 08:00:00 9.3 2 Sudoeste 9 Sudeste 0 -- -- 69
2020-09-01 07:00:00 9.3 5 Noroeste 9 Oeste 0 -- -- 70
2020-09-01 06:00:00 8 0 Calma 4 Sudeste 0 -- -- 68
2020-09-01 05:00:00 8.3 3 Este 6 Este 0 -- -- 65
2020-09-01 04:00:00 8.3 3 Nordeste 7 Nordeste 0 -- -- 63
2020-09-01 03:00:00 8.1 3 Nordeste 8 Nordeste 0 -- -- 64
2020-09-01 02:00:00 8.1 2 Este 5 Nordeste 0 -- -- 65
2020-09-01 01:00:00 9.1 2 Nordeste 4 Sudeste 0 -- -- 61
2020-09-01 00:00:00 11.2 0 Calma 4 Sudeste 0 -- -- 54
2020-08-31 23:00:00 12.9 3 Este 9 Noroeste 0 -- -- 49
2020-08-31 22:00:00 16.2 8 Noroeste 10 Noroeste 0 -- -- 34
2020-08-31 21:00:00 17.6 6 Noroeste 19 Noroeste 0 -- -- 31
2020-08-31 20:00:00 21.2 13 Noroeste 21 Noroeste 0 -- -- 26
2020-08-31 19:00:00 21.5 14 Noroeste 24 Noroeste 0 -- -- 25
2020-08-31 18:00:00 22.8 17 Noroeste 28 Oeste 0 -- -- 24
2020-08-31 17:00:00 22.6 15 Noroeste 30 Oeste 0 -- -- 23
2020-08-31 16:00:00 22.4 13 Oeste 26 Oeste 0 -- -- 22
2020-08-31 15:00:00 21.6 10 Noroeste 25 Oeste 0 -- -- 20
2020-08-31 14:00:00 20.4 12 Oeste 21 Oeste 0 -- -- 25
2020-08-31 13:00:00 19.2 5 Sudoeste 15 Este 0 -- -- 33
2020-08-31 12:00:00 18 4 Sudeste 12 Sudeste 0 -- -- 39
2020-08-31 11:00:00 14.8 4 Este 10 Este 0 -- -- 57
2020-08-31 10:00:00 9.1 6 Este 9 Este 0 -- -- 74
2020-08-31 09:00:00 4.1 4 Este 6 Este 0 -- -- 89
2020-08-31 08:00:00 1.3 3 Nordeste 6 Nordeste 0 -- -- 94
2020-08-31 07:00:00 1.5 2 Este 5 Nordeste 0 -- -- 93
2020-08-31 06:00:00 1.5 3 Nordeste 11 Este 0 -- -- 93
2020-08-31 05:00:00 2.1 3 Nordeste 6 Nordeste 0 -- -- 92
2020-08-31 04:00:00 2.9 3 Nordeste 6 Este 0 -- -- 92
2020-08-31 03:00:00 3.2 4 Este 6 Este 0 -- -- 90
2020-08-31 02:00:00 4.2 2 Este 5 Este 0 -- -- 87
2020-08-31 01:00:00 6.9 2 Sudeste 4 Sudeste 0 -- -- 82
2020-08-31 00:00:00 9.1 2 Sur 6 Nordeste 0 -- -- 71
2020-08-30 23:00:00 9.7 4 Nordeste 14 Norte 0 -- -- 67
2020-08-30 22:00:00 12.2 10 Norte 15 Norte 0 -- -- 58
2020-08-30 21:00:00 13.9 10 Norte 21 Norte 0 -- -- 49
2020-08-30 20:00:00 16.6 14 Norte 25 Norte 0 -- -- 41
2020-08-30 19:00:00 16.5 13 Norte 25 Noroeste 0 -- -- 41
2020-08-30 18:00:00 17.3 14 Norte 32 Noroeste 0 -- -- 39
2020-08-30 17:00:00 18.7 18 Noroeste 34 Noroeste 0 -- -- 34
2020-08-30 16:00:00 18.7 14 Noroeste 30 Oeste 0 -- -- 33
2020-08-30 15:00:00 17.1 17 Noroeste 36 Noroeste 0 -- -- 36
2020-08-30 14:00:00 18.3 10 Norte 30 Noroeste 0 -- -- 34
2020-08-30 13:00:00 16.1 17 Noroeste 28 Noroeste 0 -- -- 37
2020-08-30 12:00:00 14.7 18 Norte 34 Noroeste 0 -- -- 41
2020-08-30 11:00:00 12.6 17 Noroeste 28 Noroeste 0 -- -- 61
2020-08-30 10:00:00 10.1 15 Noroeste 23 Oeste 0 -- -- 77
2020-08-30 09:00:00 7.5 8 Oeste 16 Oeste 0 -- -- 89
2020-08-30 08:00:00 4.8 0 Calma 7 Oeste 0 -- -- 94
2020-08-30 07:00:00 4.9 0 Calma 11 Oeste 0 -- -- 92
2020-08-30 06:00:00 5.5 4 Sudeste 19 Oeste 0 -- -- 90
2020-08-30 05:00:00 5.7 8 Sudoeste 21 Oeste 0 -- -- 88
2020-08-30 04:00:00 6.3 15 Oeste 31 Noroeste 0 -- -- 85
2020-08-30 03:00:00 7.3 21 Noroeste 30 Noroeste 0 -- -- 80
2020-08-30 02:00:00 7.6 18 Noroeste 29 Oeste 0 -- -- 77
2020-08-30 01:00:00 8 17 Noroeste 23 Noroeste 0 -- -- 79
2020-08-30 00:00:00 9.1 13 Oeste 23 Oeste 0 -- -- 73
2020-08-29 23:00:00 10.2 14 Noroeste 33 Noroeste 0 -- -- 72
2020-08-29 22:00:00 11.3 21 Noroeste 33 Norte 0 -- -- 72
2020-08-29 21:00:00 12.1 17 Noroeste 38 Norte 0 -- -- 70
2020-08-29 20:00:00 14 19 Norte 40 Noroeste 0.8 -- -- 64
2020-08-29 19:00:00 11.6 8 Noroeste 40 Norte 12 -- -- 82
2020-08-29 18:00:00 14.4 13 Noroeste 51 Norte 0.2 -- -- 64
2020-08-29 17:00:00 15.7 37 Norte 54 Norte 0 -- -- 50
2020-08-29 16:00:00 18.3 24 Noroeste 39 Noroeste 0 -- -- 38
2020-08-29 15:00:00 17.8 21 Noroeste 39 Noroeste 0 -- -- 41
2020-08-29 14:00:00 16.8 22 Noroeste 44 Oeste 0 -- -- 44
2020-08-29 13:00:00 16.4 25 Oeste 37 Oeste 0 -- -- 46
2020-08-29 12:00:00 16.1 21 Norte 40 Noroeste 0 -- -- 41
2020-08-29 11:00:00 14.8 23 Noroeste 40 Noroeste 0 -- -- 50
2020-08-29 10:00:00 13.6 17 Noroeste 30 Noroeste 0 -- -- 58
2020-08-29 09:00:00 11 9 Oeste 14 Noroeste 0 -- -- 67
2020-08-29 08:00:00 8 0 Calma 16 Noroeste 0 -- -- 78
2020-08-29 07:00:00 8.5 13 Noroeste 18 Oeste 0 -- -- 77
2020-08-29 06:00:00 8.7 6 Oeste 14 Noroeste 0 -- -- 78
2020-08-29 05:00:00 11.1 9 Noroeste 15 Noroeste 0 -- -- 71
2020-08-29 04:00:00 12.5 4 Oeste 12 Sudoeste 0 -- -- 76
2020-08-29 03:00:00 13.3 9 Sur 13 Sur 0 -- -- 72
2020-08-29 02:00:00 13.4 5 Sur 10 Sudeste 0 -- -- 72
2020-08-29 01:00:00 13.6 4 Sudeste 14 Este 0 -- -- 73
2020-08-29 00:00:00 13.7 9 Sudeste 22 Sudeste 0 -- -- 73
2020-08-28 23:00:00 14.4 9 Este 32 Este 0 -- -- 72
2020-08-28 22:00:00 17.1 19 Este 32 Este 0 -- -- 62
2020-08-28 21:00:00 21.5 17 Noroeste 41 Oeste 0 -- -- 37
2020-08-28 20:00:00 25 28 Oeste 46 Oeste 0 -- -- 29
2020-08-28 19:00:00 26.3 28 Oeste 49 Noroeste 0 -- -- 28
2020-08-28 18:00:00 26.4 29 Oeste 49 Oeste 0 -- -- 28
2020-08-28 17:00:00 26.6 31 Oeste 54 Oeste 0 -- -- 31
2020-08-28 16:00:00 26.1 35 Oeste 55 Oeste 0 -- -- 37
2020-08-28 15:00:00 25.6 33 Oeste 50 Oeste 0 -- -- 40
2020-08-28 14:00:00 24.2 28 Oeste 42 Oeste 0 -- -- 46
2020-08-28 13:00:00 23 24 Oeste 39 Oeste 0 -- -- 52
2020-08-28 12:00:00 22.4 27 Oeste 41 Oeste 0 -- -- 54
2020-08-28 11:00:00 20.9 22 Oeste 30 Oeste 0 -- -- 63
2020-08-28 10:00:00 19 19 Oeste 26 Noroeste 0 -- -- 69
2020-08-28 09:00:00 17.8 12 Oeste 17 Oeste 0 -- -- 70
2020-08-28 08:00:00 16.8 11 Oeste 20 Oeste 0 -- -- 80
2020-08-28 07:00:00 16.8 9 Oeste 19 Oeste 0 -- -- 79
2020-08-28 06:00:00 18 14 Oeste 22 Oeste 0 -- -- 63
2020-08-28 05:00:00 14.2 0 Calma 4 Sudeste 0 -- -- 73
2020-08-28 04:00:00 14.4 0 Calma 5 Sudeste 0 -- -- 72
2020-08-28 03:00:00 16.2 2 Sur 5 Sudeste 0 -- -- 63
2020-08-28 02:00:00 18.3 0 Calma 4 Sudeste 0 -- -- 53
2020-08-28 01:00:00 19.9 2 Nordeste 5 Nordeste 0 -- -- 49
2020-08-28 00:00:00 19.1 3 Este 14 Este 0 -- -- 49